sensor_id;sensor_type;location;lat;lon;timestamp;temperature;humidity
67192;HTU21D;54120;53.504;49.426;2022-12-07T00:03:31;-12.30;91.26
67192;HTU21D;54120;53.504;49.426;2022-12-07T00:05:58;-12.38;91.34
67192;HTU21D;54120;53.504;49.426;2022-12-07T00:08:24;-12.49;91.40
67192;HTU21D;54120;53.504;49.426;2022-12-07T00:10:50;-12.55;91.34
67192;HTU21D;54120;53.504;49.426;2022-12-07T00:13:16;-12.30;94.02
67192;HTU21D;54120;53.504;49.426;2022-12-07T00:15:42;-12.06;91.95
67192;HTU21D;54120;53.504;49.426;2022-12-07T00:18:08;-12.29;90.77
67192;HTU21D;54120;53.504;49.426;2022-12-07T00:20:35;-12.43;90.60
67192;HTU21D;54120;53.504;49.426;2022-12-07T00:23:01;-12.58;90.77
67192;HTU21D;54120;53.504;49.426;2022-12-07T00:25:26;-12.69;91.02
67192;HTU21D;54120;53.504;49.426;2022-12-07T00:27:53;-12.69;91.35
67192;HTU21D;54120;53.504;49.426;2022-12-07T00:30:22;-12.69;91.72
67192;HTU21D;54120;53.504;49.426;2022-12-07T00:32:49;-12.71;91.38
67192;HTU21D;54120;53.504;49.426;2022-12-07T00:35:15;-12.74;91.22
67192;HTU21D;54120;53.504;49.426;2022-12-07T00:37:41;-12.71;91.75
67192;HTU21D;54120;53.504;49.426;2022-12-07T00:40:07;-12.68;91.76
67192;HTU21D;54120;53.504;49.426;2022-12-07T00:42:34;-12.59;92.03
67192;HTU21D;54120;53.504;49.426;2022-12-07T00:44:59;-12.62;91.37
67192;HTU21D;54120;53.504;49.426;2022-12-07T00:47:25;-12.72;91.20
67192;HTU21D;54120;53.504;49.426;2022-12-07T00:49:51;-12.73;91.31
67192;HTU21D;54120;53.504;49.426;2022-12-07T00:52:17;-12.72;91.66
67192;HTU21D;54120;53.504;49.426;2022-12-07T00:54:43;-12.66;91.48
67192;HTU21D;54120;53.504;49.426;2022-12-07T00:57:09;-12.71;91.11
67192;HTU21D;54120;53.504;49.426;2022-12-07T00:59:35;-12.75;90.93
67192;HTU21D;54120;53.504;49.426;2022-12-07T01:02:01;-12.71;91.48
67192;HTU21D;54120;53.504;49.426;2022-12-07T01:04:27;-12.72;91.39
67192;HTU21D;54120;53.504;49.426;2022-12-07T01:06:53;-12.56;92.29
67192;HTU21D;54120;53.504;49.426;2022-12-07T01:09:19;-12.39;90.66
67192;HTU21D;54120;53.504;49.426;2022-12-07T01:11:45;-12.64;89.93
67192;HTU21D;54120;53.504;49.426;2022-12-07T01:14:11;-12.66;90.60
67192;HTU21D;54120;53.504;49.426;2022-12-07T01:16:38;-12.65;90.93
67192;HTU21D;54120;53.504;49.426;2022-12-07T01:19:04;-12.69;90.66
67192;HTU21D;54120;53.504;49.426;2022-12-07T01:21:33;-12.74;90.94
67192;HTU21D;54120;53.504;49.426;2022-12-07T01:24:05;-12.81;91.05
67192;HTU21D;54120;53.504;49.426;2022-12-07T01:26:32;-12.80;90.99
67192;HTU21D;54120;53.504;49.426;2022-12-07T01:28:58;-12.81;90.94
67192;HTU21D;54120;53.504;49.426;2022-12-07T01:31:27;-12.82;91.13
67192;HTU21D;54120;53.504;49.426;2022-12-07T01:33:56;-12.87;90.79
67192;HTU21D;54120;53.504;49.426;2022-12-07T01:36:33;-12.97;90.59
67192;HTU21D;54120;53.504;49.426;2022-12-07T01:39:02;-13.07;90.63
67192;HTU21D;54120;53.504;49.426;2022-12-07T01:41:33;-13.09;90.95
67192;HTU21D;54120;53.504;49.426;2022-12-07T01:44:16;-13.16;90.81
67192;HTU21D;54120;53.504;49.426;2022-12-07T01:46:56;-13.01;92.46
67192;HTU21D;54120;53.504;49.426;2022-12-07T01:49:36;-12.86;91.72
67192;HTU21D;54120;53.504;49.426;2022-12-07T01:52:14;-12.84;91.64
67192;HTU21D;54120;53.504;49.426;2022-12-07T01:54:42;-12.85;91.07
67192;HTU21D;54120;53.504;49.426;2022-12-07T01:57:10;-12.79;91.71
67192;HTU21D;54120;53.504;49.426;2022-12-07T01:59:36;-12.72;91.32
67192;HTU21D;54120;53.504;49.426;2022-12-07T02:02:07;-12.69;91.13
67192;HTU21D;54120;53.504;49.426;2022-12-07T02:04:36;-12.69;91.24
67192;HTU21D;54120;53.504;49.426;2022-12-07T02:07:03;-12.65;90.93
67192;HTU21D;54120;53.504;49.426;2022-12-07T02:09:30;-12.62;90.86
67192;HTU21D;54120;53.504;49.426;2022-12-07T02:11:56;-12.59;90.73
67192;HTU21D;54120;53.504;49.426;2022-12-07T02:14:23;-12.66;90.47
67192;HTU21D;54120;53.504;49.426;2022-12-07T02:17:05;-12.63;90.63
67192;HTU21D;54120;53.504;49.426;2022-12-07T02:23:07;-12.62;90.57
67192;HTU21D;54120;53.504;49.426;2022-12-07T02:28:37;-12.59;90.57
67192;HTU21D;54120;53.504;49.426;2022-12-07T02:31:10;-12.54;90.58
67192;HTU21D;54120;53.504;49.426;2022-12-07T02:33:44;-12.52;90.41
67192;HTU21D;54120;53.504;49.426;2022-12-07T02:36:17;-12.52;90.28
67192;HTU21D;54120;53.504;49.426;2022-12-07T02:38:51;-12.53;90.30
67192;HTU21D;54120;53.504;49.426;2022-12-07T02:41:29;-12.55;90.34
67192;HTU21D;54120;53.504;49.426;2022-12-07T02:43:58;-12.55;90.27
67192;HTU21D;54120;53.504;49.426;2022-12-07T02:46:59;-12.58;90.37
67192;HTU21D;54120;53.504;49.426;2022-12-07T02:49:27;-12.56;90.52
67192;HTU21D;54120;53.504;49.426;2022-12-07T02:51:54;-12.60;90.32
67192;HTU21D;54120;53.504;49.426;2022-12-07T02:54:21;-12.59;90.28
67192;HTU21D;54120;53.504;49.426;2022-12-07T03:10:38;-12.59;90.59
67192;HTU21D;54120;53.504;49.426;2022-12-07T03:15:49;-12.73;90.53
67192;HTU21D;54120;53.504;49.426;2022-12-07T03:18:20;-12.75;90.69
67192;HTU21D;54120;53.504;49.426;2022-12-07T03:20:50;-12.75;90.78
67192;HTU21D;54120;53.504;49.426;2022-12-07T03:23:18;-12.77;90.93
67192;HTU21D;54120;53.504;49.426;2022-12-07T03:25:52;-12.72;91.25
67192;HTU21D;54120;53.504;49.426;2022-12-07T03:28:22;-12.78;90.77
67192;HTU21D;54120;53.504;49.426;2022-12-07T03:36:35;-12.93;91.02
67192;HTU21D;54120;53.504;49.426;2022-12-07T03:39:18;-12.94;91.24
67192;HTU21D;54120;53.504;49.426;2022-12-07T03:41:45;-12.93;91.31
67192;HTU21D;54120;53.504;49.426;2022-12-07T03:44:13;-13.02;91.00
67192;HTU21D;54120;53.504;49.426;2022-12-07T03:47:06;-13.07;90.89
67192;HTU21D;54120;53.504;49.426;2022-12-07T03:49:56;-13.13;90.85
67192;HTU21D;54120;53.504;49.426;2022-12-07T03:52:32;-13.17;90.99
67192;HTU21D;54120;53.504;49.426;2022-12-07T03:55:09;-13.18;91.08
67192;HTU21D;54120;53.504;49.426;2022-12-07T03:57:36;-13.16;91.17
67192;HTU21D;54120;53.504;49.426;2022-12-07T04:00:05;-13.21;90.69
67192;HTU21D;54120;53.504;49.426;2022-12-07T04:02:33;-13.27;90.69
67192;HTU21D;54120;53.504;49.426;2022-12-07T04:04:59;-13.25;91.14
67192;HTU21D;54120;53.504;49.426;2022-12-07T04:07:25;-13.26;91.02
67192;HTU21D;54120;53.504;49.426;2022-12-07T04:09:51;-13.23;91.18
67192;HTU21D;54120;53.504;49.426;2022-12-07T04:12:17;-13.25;91.11
67192;HTU21D;54120;53.504;49.426;2022-12-07T04:14:43;-13.28;90.98
67192;HTU21D;54120;53.504;49.426;2022-12-07T04:17:09;-13.34;90.87
67192;HTU21D;54120;53.504;49.426;2022-12-07T04:19:35;-13.36;91.05
67192;HTU21D;54120;53.504;49.426;2022-12-07T04:22:03;-13.33;91.50
67192;HTU21D;54120;53.504;49.426;2022-12-07T04:24:29;-13.27;91.44
67192;HTU21D;54120;53.504;49.426;2022-12-07T04:26:55;-13.29;91.01
67192;HTU21D;54120;53.504;49.426;2022-12-07T04:29:21;-13.33;90.88
67192;HTU21D;54120;53.504;49.426;2022-12-07T04:31:48;-13.36;90.63
67192;HTU21D;54120;53.504;49.426;2022-12-07T04:34:15;-13.38;90.69
67192;HTU21D;54120;53.504;49.426;2022-12-07T04:36:41;-13.41;90.31
67192;HTU21D;54120;53.504;49.426;2022-12-07T04:39:19;-13.45;90.32
67192;HTU21D;54120;53.504;49.426;2022-12-07T04:41:45;-13.47;90.20
67192;HTU21D;54120;53.504;49.426;2022-12-07T04:44:13;-13.55;89.63
67192;HTU21D;54120;53.504;49.426;2022-12-07T04:46:40;-13.59;89.97
67192;HTU21D;54120;53.504;49.426;2022-12-07T04:49:07;-13.62;90.38
67192;HTU21D;54120;53.504;49.426;2022-12-07T04:51:33;-13.56;90.50
67192;HTU21D;54120;53.504;49.426;2022-12-07T04:53:59;-13.45;90.66
67192;HTU21D;54120;53.504;49.426;2022-12-07T04:56:25;-13.30;90.16
67192;HTU21D;54120;53.504;49.426;2022-12-07T04:58:52;-12.99;88.97
67192;HTU21D;54120;53.504;49.426;2022-12-07T05:01:19;-12.72;87.58
67192;HTU21D;54120;53.504;49.426;2022-12-07T05:03:46;-12.58;87.14
67192;HTU21D;54120;53.504;49.426;2022-12-07T05:06:12;-12.66;85.90
67192;HTU21D;54120;53.504;49.426;2022-12-07T05:08:39;-12.55;85.73
67192;HTU21D;54120;53.504;49.426;2022-12-07T05:11:06;-12.43;84.67
67192;HTU21D;54120;53.504;49.426;2022-12-07T05:13:32;-12.20;83.49
67192;HTU21D;54120;53.504;49.426;2022-12-07T05:15:59;-12.10;82.55
67192;HTU21D;54120;53.504;49.426;2022-12-07T05:18:25;-11.85;81.81
67192;HTU21D;54120;53.504;49.426;2022-12-07T05:20:51;-11.95;81.30
67192;HTU21D;54120;53.504;49.426;2022-12-07T05:23:18;-12.17;81.08
67192;HTU21D;54120;53.504;49.426;2022-12-07T05:25:46;-12.50;83.48
67192;HTU21D;54120;53.504;49.426;2022-12-07T05:28:12;-12.75;83.76
67192;HTU21D;54120;53.504;49.426;2022-12-07T05:30:39;-12.81;86.01
67192;HTU21D;54120;53.504;49.426;2022-12-07T05:33:04;-12.77;85.84
67192;HTU21D;54120;53.504;49.426;2022-12-07T05:35:30;-12.75;85.31
67192;HTU21D;54120;53.504;49.426;2022-12-07T05:37:56;-12.70;86.85
67192;HTU21D;54120;53.504;49.426;2022-12-07T05:40:24;-12.58;85.90
67192;HTU21D;54120;53.504;49.426;2022-12-07T05:42:50;-12.53;85.68
67192;HTU21D;54120;53.504;49.426;2022-12-07T05:45:16;-12.48;85.78
67192;HTU21D;54120;53.504;49.426;2022-12-07T05:47:42;-12.43;85.16
67192;HTU21D;54120;53.504;49.426;2022-12-07T05:50:08;-12.41;85.37
67192;HTU21D;54120;53.504;49.426;2022-12-07T05:52:34;-12.37;84.83
67192;HTU21D;54120;53.504;49.426;2022-12-07T05:55:00;-12.38;86.23
67192;HTU21D;54120;53.504;49.426;2022-12-07T05:57:26;-12.33;85.57
67192;HTU21D;54120;53.504;49.426;2022-12-07T05:59:52;-12.29;85.44
67192;HTU21D;54120;53.504;49.426;2022-12-07T06:02:18;-12.24;85.95
67192;HTU21D;54120;53.504;49.426;2022-12-07T06:04:46;-12.18;85.96
67192;HTU21D;54120;53.504;49.426;2022-12-07T06:07:14;-12.07;85.79
67192;HTU21D;54120;53.504;49.426;2022-12-07T06:09:40;-12.05;85.28
67192;HTU21D;54120;53.504;49.426;2022-12-07T06:12:10;-11.99;85.24
67192;HTU21D;54120;53.504;49.426;2022-12-07T06:14:55;-11.36;85.05
67192;HTU21D;54120;53.504;49.426;2022-12-07T06:17:21;-9.29;79.53
67192;HTU21D;54120;53.504;49.426;2022-12-07T06:19:47;-7.90;71.33
67192;HTU21D;54120;53.504;49.426;2022-12-07T06:22:13;-7.48;68.30
67192;HTU21D;54120;53.504;49.426;2022-12-07T06:24:39;-7.31;65.71
67192;HTU21D;54120;53.504;49.426;2022-12-07T06:27:06;-7.31;67.53
67192;HTU21D;54120;53.504;49.426;2022-12-07T06:29:32;-6.12;63.53
67192;HTU21D;54120;53.504;49.426;2022-12-07T06:31:58;-5.50;60.64
67192;HTU21D;54120;53.504;49.426;2022-12-07T06:34:25;-4.60;58.12
67192;HTU21D;54120;53.504;49.426;2022-12-07T06:36:51;-4.76;57.22
67192;HTU21D;54120;53.504;49.426;2022-12-07T06:39:21;-4.46;56.35
67192;HTU21D;54120;53.504;49.426;2022-12-07T06:41:47;-4.27;56.78
67192;HTU21D;54120;53.504;49.426;2022-12-07T06:44:13;-4.04;54.86
67192;HTU21D;54120;53.504;49.426;2022-12-07T06:46:40;-4.59;55.79
67192;HTU21D;54120;53.504;49.426;2022-12-07T06:49:06;-4.73;56.79
67192;HTU21D;54120;53.504;49.426;2022-12-07T06:51:32;-4.58;57.03
67192;HTU21D;54120;53.504;49.426;2022-12-07T06:54:00;-3.86;53.91
67192;HTU21D;54120;53.504;49.426;2022-12-07T06:56:26;-3.99;53.97
67192;HTU21D;54120;53.504;49.426;2022-12-07T06:58:52;-3.35;52.48
67192;HTU21D;54120;53.504;49.426;2022-12-07T07:01:18;-3.52;51.43
67192;HTU21D;54120;53.504;49.426;2022-12-07T07:03:45;-4.50;55.01
67192;HTU21D;54120;53.504;49.426;2022-12-07T07:06:12;-4.59;55.61
67192;HTU21D;54120;53.504;49.426;2022-12-07T07:08:39;-4.90;57.24
67192;HTU21D;54120;53.504;49.426;2022-12-07T07:11:06;-4.52;55.45
67192;HTU21D;54120;53.504;49.426;2022-12-07T07:13:33;-4.20;54.90
67192;HTU21D;54120;53.504;49.426;2022-12-07T07:16:03;-3.66;53.13
67192;HTU21D;54120;53.504;49.426;2022-12-07T07:18:29;-3.77;52.52
67192;HTU21D;54120;53.504;49.426;2022-12-07T07:20:55;-4.51;53.97
67192;HTU21D;54120;53.504;49.426;2022-12-07T07:23:21;-7.07;61.37
67192;HTU21D;54120;53.504;49.426;2022-12-07T07:25:48;-8.56;68.28
67192;HTU21D;54120;53.504;49.426;2022-12-07T07:28:14;-9.63;72.67
67192;HTU21D;54120;53.504;49.426;2022-12-07T07:30:41;-10.02;75.22
67192;HTU21D;54120;53.504;49.426;2022-12-07T07:33:07;-10.01;76.73
67192;HTU21D;54120;53.504;49.426;2022-12-07T07:35:34;-10.17;77.27
67192;HTU21D;54120;53.504;49.426;2022-12-07T07:38:00;-10.07;77.82
67192;HTU21D;54120;53.504;49.426;2022-12-07T07:40:27;-10.25;77.63
67192;HTU21D;54120;53.504;49.426;2022-12-07T07:42:55;-10.33;78.18
67192;HTU21D;54120;53.504;49.426;2022-12-07T07:45:22;-10.44;77.95
67192;HTU21D;54120;53.504;49.426;2022-12-07T07:47:49;-10.41;78.54
67192;HTU21D;54120;53.504;49.426;2022-12-07T07:50:16;-10.36;78.36
67192;HTU21D;54120;53.504;49.426;2022-12-07T07:52:43;-10.22;78.81
67192;HTU21D;54120;53.504;49.426;2022-12-07T07:55:09;-10.14;77.83
67192;HTU21D;54120;53.504;49.426;2022-12-07T07:57:36;-10.14;77.06
67192;HTU21D;54120;53.504;49.426;2022-12-07T08:00:08;-10.18;77.28
67192;HTU21D;54120;53.504;49.426;2022-12-07T08:02:34;-10.07;77.24
67192;HTU21D;54120;53.504;49.426;2022-12-07T08:05:00;-10.06;77.18
67192;HTU21D;54120;53.504;49.426;2022-12-07T08:07:27;-10.03;77.47
67192;HTU21D;54120;53.504;49.426;2022-12-07T08:09:53;-9.98;77.25
67192;HTU21D;54120;53.504;49.426;2022-12-07T08:12:19;-10.02;77.85
67192;HTU21D;54120;53.504;49.426;2022-12-07T08:14:45;-10.17;78.03
67192;HTU21D;54120;53.504;49.426;2022-12-07T08:17:12;-10.19;77.91
67192;HTU21D;54120;53.504;49.426;2022-12-07T08:19:38;-10.37;77.81
67192;HTU21D;54120;53.504;49.426;2022-12-07T08:22:04;-10.34;78.20
67192;HTU21D;54120;53.504;49.426;2022-12-07T08:24:33;-10.27;78.06
67192;HTU21D;54120;53.504;49.426;2022-12-07T08:27:00;-10.23;78.27
67192;HTU21D;54120;53.504;49.426;2022-12-07T08:29:26;-10.28;78.15
67192;HTU21D;54120;53.504;49.426;2022-12-07T08:31:52;-10.28;77.62
67192;HTU21D;54120;53.504;49.426;2022-12-07T08:34:18;-10.41;77.89
67192;HTU21D;54120;53.504;49.426;2022-12-07T08:36:44;-10.42;77.58
67192;HTU21D;54120;53.504;49.426;2022-12-07T08:39:10;-10.67;77.96
67192;HTU21D;54120;53.504;49.426;2022-12-07T08:41:36;-10.66;79.24
67192;HTU21D;54120;53.504;49.426;2022-12-07T08:44:03;-10.43;79.27
67192;HTU21D;54120;53.504;49.426;2022-12-07T08:46:54;-10.48;77.79
67192;HTU21D;54120;53.504;49.426;2022-12-07T08:49:30;-10.61;77.25
67192;HTU21D;54120;53.504;49.426;2022-12-07T08:51:58;-10.57;77.90
67192;HTU21D;54120;53.504;49.426;2022-12-07T08:54:24;-10.43;78.30
67192;HTU21D;54120;53.504;49.426;2022-12-07T08:56:51;-10.28;77.78
67192;HTU21D;54120;53.504;49.426;2022-12-07T08:59:18;-10.21;77.89
67192;HTU21D;54120;53.504;49.426;2022-12-07T09:01:45;-10.34;77.38
67192;HTU21D;54120;53.504;49.426;2022-12-07T09:04:11;-10.38;76.86
67192;HTU21D;54120;53.504;49.426;2022-12-07T09:06:37;-10.40;77.14
67192;HTU21D;54120;53.504;49.426;2022-12-07T09:09:04;-10.41;77.26
67192;HTU21D;54120;53.504;49.426;2022-12-07T09:11:30;-10.46;77.01
67192;HTU21D;54120;53.504;49.426;2022-12-07T09:13:56;-10.36;76.38
67192;HTU21D;54120;53.504;49.426;2022-12-07T09:16:22;-10.42;75.14
67192;HTU21D;54120;53.504;49.426;2022-12-07T09:18:48;-10.27;75.25
67192;HTU21D;54120;53.504;49.426;2022-12-07T09:21:14;-10.18;73.35
67192;HTU21D;54120;53.504;49.426;2022-12-07T09:23:42;-10.14;73.67
67192;HTU21D;54120;53.504;49.426;2022-12-07T09:26:08;-10.08;72.95
67192;HTU21D;54120;53.504;49.426;2022-12-07T09:28:34;-10.12;73.06
67192;HTU21D;54120;53.504;49.426;2022-12-07T09:31:01;-10.08;74.07
67192;HTU21D;54120;53.504;49.426;2022-12-07T09:33:28;-10.06;74.41
67192;HTU21D;54120;53.504;49.426;2022-12-07T09:35:53;-10.01;74.30
67192;HTU21D;54120;53.504;49.426;2022-12-07T09:38:20;-10.08;74.95
67192;HTU21D;54120;53.504;49.426;2022-12-07T09:40:47;-10.00;74.90
67192;HTU21D;54120;53.504;49.426;2022-12-07T09:43:18;-9.98;75.28
67192;HTU21D;54120;53.504;49.426;2022-12-07T09:45:46;-10.07;75.40
67192;HTU21D;54120;53.504;49.426;2022-12-07T09:48:18;-10.13;75.93
67192;HTU21D;54120;53.504;49.426;2022-12-07T09:50:47;-10.19;76.12
67192;HTU21D;54120;53.504;49.426;2022-12-07T09:53:33;-10.23;76.29
67192;HTU21D;54120;53.504;49.426;2022-12-07T09:56:00;-10.28;76.02
67192;HTU21D;54120;53.504;49.426;2022-12-07T09:58:28;-10.31;76.14
67192;HTU21D;54120;53.504;49.426;2022-12-07T10:01:00;-10.32;76.47
67192;HTU21D;54120;53.504;49.426;2022-12-07T10:03:27;-10.33;76.50
67192;HTU21D;54120;53.504;49.426;2022-12-07T10:05:55;-10.31;76.27
67192;HTU21D;54120;53.504;49.426;2022-12-07T10:08:21;-10.33;76.39
67192;HTU21D;54120;53.504;49.426;2022-12-07T10:10:55;-10.33;76.74
67192;HTU21D;54120;53.504;49.426;2022-12-07T10:13:37;-10.32;76.18
67192;HTU21D;54120;53.504;49.426;2022-12-07T10:16:04;-10.31;76.66
67192;HTU21D;54120;53.504;49.426;2022-12-07T10:18:36;-10.28;76.68
67192;HTU21D;54120;53.504;49.426;2022-12-07T10:24:04;-10.26;75.15
67192;HTU21D;54120;53.504;49.426;2022-12-07T10:29:32;-10.29;75.66
67192;HTU21D;54120;53.504;49.426;2022-12-07T10:32:04;-10.17;74.98
67192;HTU21D;54120;53.504;49.426;2022-12-07T10:34:35;-10.14;75.19
67192;HTU21D;54120;53.504;49.426;2022-12-07T10:39:43;-10.23;75.00
67192;HTU21D;54120;53.504;49.426;2022-12-07T10:44:44;-10.28;75.17
67192;HTU21D;54120;53.504;49.426;2022-12-07T10:55:17;-10.53;76.50
67192;HTU21D;54120;53.504;49.426;2022-12-07T10:57:58;-10.50;76.51
67192;HTU21D;54120;53.504;49.426;2022-12-07T11:00:51;-10.36;76.42
67192;HTU21D;54120;53.504;49.426;2022-12-07T11:11:09;-10.49;76.24
67192;HTU21D;54120;53.504;49.426;2022-12-07T11:14:05;-10.56;76.64
67192;HTU21D;54120;53.504;49.426;2022-12-07T11:16:41;-10.58;76.94
67192;HTU21D;54120;53.504;49.426;2022-12-07T11:19:24;-10.64;76.83
67192;HTU21D;54120;53.504;49.426;2022-12-07T11:24:23;-10.70;77.22
67192;HTU21D;54120;53.504;49.426;2022-12-07T11:35:22;-10.87;77.21
67192;HTU21D;54120;53.504;49.426;2022-12-07T11:37:57;-10.94;76.82
67192;HTU21D;54120;53.504;49.426;2022-12-07T11:40:31;-11.02;77.15
67192;HTU21D;54120;53.504;49.426;2022-12-07T11:43:20;-11.09;77.44
67192;HTU21D;54120;53.504;49.426;2022-12-07T11:45:57;-11.19;77.34
67192;HTU21D;54120;53.504;49.426;2022-12-07T11:49:08;-11.22;77.31
67192;HTU21D;54120;53.504;49.426;2022-12-07T11:51:38;-11.30;77.44
67192;HTU21D;54120;53.504;49.426;2022-12-07T11:54:20;-11.38;77.62
67192;HTU21D;54120;53.504;49.426;2022-12-07T11:56:49;-11.41;77.70
67192;HTU21D;54120;53.504;49.426;2022-12-07T11:59:31;-11.37;77.81
67192;HTU21D;54120;53.504;49.426;2022-12-07T12:02:20;-11.39;77.47
67192;HTU21D;54120;53.504;49.426;2022-12-07T12:05:18;-11.45;78.01
67192;HTU21D;54120;53.504;49.426;2022-12-07T12:07:46;-11.53;78.54
67192;HTU21D;54120;53.504;49.426;2022-12-07T12:10:18;-11.63;78.69
67192;HTU21D;54120;53.504;49.426;2022-12-07T12:15:30;-11.66;78.91
67192;HTU21D;54120;53.504;49.426;2022-12-07T12:18:34;-11.76;79.26
67192;HTU21D;54120;53.504;49.426;2022-12-07T12:21:15;-11.81;79.52
67192;HTU21D;54120;53.504;49.426;2022-12-07T12:26:20;-11.93;80.01
67192;HTU21D;54120;53.504;49.426;2022-12-07T12:31:31;-12.04;80.09
67192;HTU21D;54120;53.504;49.426;2022-12-07T12:34:00;-12.08;80.64
67192;HTU21D;54120;53.504;49.426;2022-12-07T12:44:03;-12.20;81.33
67192;HTU21D;54120;53.504;49.426;2022-12-07T12:46:53;-12.30;81.74
67192;HTU21D;54120;53.504;49.426;2022-12-07T12:51:47;-12.49;82.52
67192;HTU21D;54120;53.504;49.426;2022-12-07T12:59:25;-12.66;83.27
67192;HTU21D;54120;53.504;49.426;2022-12-07T13:15:42;-12.74;84.35
67192;HTU21D;54120;53.504;49.426;2022-12-07T13:23:27;-12.74;84.70
67192;HTU21D;54120;53.504;49.426;2022-12-07T13:25:55;-12.81;84.19
67192;HTU21D;54120;53.504;49.426;2022-12-07T13:28:37;-12.83;84.81
67192;HTU21D;54120;53.504;49.426;2022-12-07T13:31:22;-12.75;84.81
67192;HTU21D;54120;53.504;49.426;2022-12-07T13:33:48;-12.80;84.64
67192;HTU21D;54120;53.504;49.426;2022-12-07T13:36:22;-12.78;84.80
67192;HTU21D;54120;53.504;49.426;2022-12-07T13:38:54;-12.72;84.80
67192;HTU21D;54120;53.504;49.426;2022-12-07T13:41:22;-12.73;84.43
67192;HTU21D;54120;53.504;49.426;2022-12-07T13:46:20;-12.75;84.91
67192;HTU21D;54120;53.504;49.426;2022-12-07T13:48:50;-12.69;84.74
67192;HTU21D;54120;53.504;49.426;2022-12-07T13:51:19;-12.60;84.96
67192;HTU21D;54120;53.504;49.426;2022-12-07T13:53:51;-12.58;84.47
67192;HTU21D;54120;53.504;49.426;2022-12-07T13:56:17;-12.54;84.26
67192;HTU21D;54120;53.504;49.426;2022-12-07T13:58:43;-12.53;84.26
67192;HTU21D;54120;53.504;49.426;2022-12-07T14:01:10;-12.53;83.86
67192;HTU21D;54120;53.504;49.426;2022-12-07T14:03:36;-12.56;84.05
67192;HTU21D;54120;53.504;49.426;2022-12-07T14:06:22;-12.58;84.13
67192;HTU21D;54120;53.504;49.426;2022-12-07T14:09:08;-12.62;84.20
67192;HTU21D;54120;53.504;49.426;2022-12-07T14:11:35;-12.56;84.32
67192;HTU21D;54120;53.504;49.426;2022-12-07T14:14:02;-12.60;84.21
67192;HTU21D;54120;53.504;49.426;2022-12-07T14:16:34;-12.68;83.89
67192;HTU21D;54120;53.504;49.426;2022-12-07T14:19:03;-12.70;84.63
67192;HTU21D;54120;53.504;49.426;2022-12-07T14:21:33;-12.66;84.48
67192;HTU21D;54120;53.504;49.426;2022-12-07T14:24:12;-12.71;84.27
67192;HTU21D;54120;53.504;49.426;2022-12-07T14:26:39;-12.78;84.29
67192;HTU21D;54120;53.504;49.426;2022-12-07T14:29:30;-12.91;84.52
67192;HTU21D;54120;53.504;49.426;2022-12-07T14:31:59;-12.85;84.74
67192;HTU21D;54120;53.504;49.426;2022-12-07T14:34:30;-12.81;84.28
67192;HTU21D;54120;53.504;49.426;2022-12-07T14:36:56;-12.78;84.00
67192;HTU21D;54120;53.504;49.426;2022-12-07T14:39:22;-12.80;83.75
67192;HTU21D;54120;53.504;49.426;2022-12-07T14:41:48;-12.84;83.60
67192;HTU21D;54120;53.504;49.426;2022-12-07T14:44:24;-12.84;83.87
67192;HTU21D;54120;53.504;49.426;2022-12-07T14:46:50;-12.87;84.14
67192;HTU21D;54120;53.504;49.426;2022-12-07T14:49:17;-12.93;84.39
67192;HTU21D;54120;53.504;49.426;2022-12-07T14:51:44;-12.87;84.73
67192;HTU21D;54120;53.504;49.426;2022-12-07T14:54:19;-12.92;84.75
67192;HTU21D;54120;53.504;49.426;2022-12-07T14:56:46;-12.94;84.97
67192;HTU21D;54120;53.504;49.426;2022-12-07T14:59:16;-12.95;85.22
67192;HTU21D;54120;53.504;49.426;2022-12-07T15:01:45;-12.88;84.99
67192;HTU21D;54120;53.504;49.426;2022-12-07T15:04:11;-12.91;84.85
67192;HTU21D;54120;53.504;49.426;2022-12-07T15:06:38;-12.94;85.00
67192;HTU21D;54120;53.504;49.426;2022-12-07T15:09:04;-12.98;84.95
67192;HTU21D;54120;53.504;49.426;2022-12-07T15:11:30;-12.99;84.99
67192;HTU21D;54120;53.504;49.426;2022-12-07T15:13:56;-13.01;84.88
67192;HTU21D;54120;53.504;49.426;2022-12-07T15:16:36;-13.08;84.90
67192;HTU21D;54120;53.504;49.426;2022-12-07T15:19:02;-13.11;85.15
67192;HTU21D;54120;53.504;49.426;2022-12-07T15:21:28;-13.11;85.09
67192;HTU21D;54120;53.504;49.426;2022-12-07T15:23:54;-13.22;85.32
67192;HTU21D;54120;53.504;49.426;2022-12-07T15:26:20;-13.28;85.67
67192;HTU21D;54120;53.504;49.426;2022-12-07T15:28:46;-13.29;86.13
67192;HTU21D;54120;53.504;49.426;2022-12-07T15:31:13;-13.32;86.29
67192;HTU21D;54120;53.504;49.426;2022-12-07T15:33:39;-13.32;86.61
67192;HTU21D;54120;53.504;49.426;2022-12-07T15:36:06;-13.33;86.96
67192;HTU21D;54120;53.504;49.426;2022-12-07T15:38:32;-13.30;86.82
67192;HTU21D;54120;53.504;49.426;2022-12-07T15:40:58;-13.30;86.83
67192;HTU21D;54120;53.504;49.426;2022-12-07T15:43:24;-13.30;86.72
67192;HTU21D;54120;53.504;49.426;2022-12-07T15:46:09;-13.36;86.63
67192;HTU21D;54120;53.504;49.426;2022-12-07T15:48:35;-13.39;86.82
67192;HTU21D;54120;53.504;49.426;2022-12-07T15:51:05;-13.40;87.03
67192;HTU21D;54120;53.504;49.426;2022-12-07T15:53:32;-13.51;86.93
67192;HTU21D;54120;53.504;49.426;2022-12-07T15:55:59;-13.55;87.10
67192;HTU21D;54120;53.504;49.426;2022-12-07T15:58:25;-13.57;87.02
67192;HTU21D;54120;53.504;49.426;2022-12-07T16:00:51;-13.62;87.18
67192;HTU21D;54120;53.504;49.426;2022-12-07T16:03:17;-13.59;87.11
67192;HTU21D;54120;53.504;49.426;2022-12-07T16:05:52;-13.65;87.27
67192;HTU21D;54120;53.504;49.426;2022-12-07T16:08:19;-13.66;87.32
67192;HTU21D;54120;53.504;49.426;2022-12-07T16:10:45;-13.70;87.09
67192;HTU21D;54120;53.504;49.426;2022-12-07T16:13:11;-13.78;86.99
67192;HTU21D;54120;53.504;49.426;2022-12-07T16:15:42;-13.81;87.13
67192;HTU21D;54120;53.504;49.426;2022-12-07T16:18:08;-13.85;86.92
67192;HTU21D;54120;53.504;49.426;2022-12-07T16:20:35;-13.89;87.08
67192;HTU21D;54120;53.504;49.426;2022-12-07T16:23:01;-13.81;86.83
67192;HTU21D;54120;53.504;49.426;2022-12-07T16:25:27;-13.78;86.54
67192;HTU21D;54120;53.504;49.426;2022-12-07T16:27:53;-13.84;86.29
67192;HTU21D;54120;53.504;49.426;2022-12-07T16:30:20;-13.86;86.58
67192;HTU21D;54120;53.504;49.426;2022-12-07T16:32:46;-13.80;86.68
67192;HTU21D;54120;53.504;49.426;2022-12-07T16:35:13;-13.82;86.22
67192;HTU21D;54120;53.504;49.426;2022-12-07T16:37:41;-13.84;86.29
67192;HTU21D;54120;53.504;49.426;2022-12-07T16:40:08;-13.90;86.38
67192;HTU21D;54120;53.504;49.426;2022-12-07T16:42:35;-13.92;86.65
67192;HTU21D;54120;53.504;49.426;2022-12-07T16:45:02;-13.95;86.52
67192;HTU21D;54120;53.504;49.426;2022-12-07T16:47:28;-13.98;86.61
67192;HTU21D;54120;53.504;49.426;2022-12-07T16:49:54;-13.98;86.38
67192;HTU21D;54120;53.504;49.426;2022-12-07T16:52:21;-13.96;86.74
67192;HTU21D;54120;53.504;49.426;2022-12-07T16:54:48;-14.06;86.70
67192;HTU21D;54120;53.504;49.426;2022-12-07T16:57:15;-14.08;86.83